sensor_id;sensor_type;location;lat;lon;timestamp;P1;durP1;ratioP1;P2;durP2;ratioP2
179;SDS011;78;48.788;9.010;2023-11-22T00:00:16;33.83;;;11.97;;
179;SDS011;78;48.788;9.010;2023-11-22T00:02:42;29.07;;;10.40;;
179;SDS011;78;48.788;9.010;2023-11-22T00:05:08;23.00;;;7.20;;
179;SDS011;78;48.788;9.010;2023-11-22T00:07:36;20.93;;;5.43;;
179;SDS011;78;48.788;9.010;2023-11-22T00:10:02;18.80;;;5.40;;
179;SDS011;78;48.788;9.010;2023-11-22T00:12:29;17.37;;;5.10;;
179;SDS011;78;48.788;9.010;2023-11-22T00:15:01;19.57;;;6.07;;
179;SDS011;78;48.788;9.010;2023-11-22T00:17:27;20.07;;;6.07;;
179;SDS011;78;48.788;9.010;2023-11-22T00:19:53;19.50;;;6.33;;
179;SDS011;78;48.788;9.010;2023-11-22T00:22:20;21.20;;;6.50;;
179;SDS011;78;48.788;9.010;2023-11-22T00:24:46;22.23;;;7.13;;
179;SDS011;78;48.788;9.010;2023-11-22T00:27:15;23.70;;;7.60;;
179;SDS011;78;48.788;9.010;2023-11-22T00:29:42;23.40;;;8.13;;
179;SDS011;78;48.788;9.010;2023-11-22T00:32:08;25.10;;;7.70;;
179;SDS011;78;48.788;9.010;2023-11-22T00:34:34;23.27;;;7.93;;
179;SDS011;78;48.788;9.010;2023-11-22T00:37:01;24.10;;;7.70;;
179;SDS011;78;48.788;9.010;2023-11-22T00:39:28;25.53;;;7.97;;
179;SDS011;78;48.788;9.010;2023-11-22T00:41:54;24.83;;;7.47;;
179;SDS011;78;48.788;9.010;2023-11-22T00:44:21;21.83;;;7.13;;
179;SDS011;78;48.788;9.010;2023-11-22T00:46:47;24.37;;;7.90;;
179;SDS011;78;48.788;9.010;2023-11-22T00:49:14;24.70;;;8.60;;
179;SDS011;78;48.788;9.010;2023-11-22T00:51:39;24.40;;;8.10;;
179;SDS011;78;48.788;9.010;2023-11-22T00:54:06;23.30;;;7.87;;
179;SDS011;78;48.788;9.010;2023-11-22T00:56:32;24.27;;;7.90;;
179;SDS011;78;48.788;9.010;2023-11-22T00:58:58;23.70;;;7.80;;
179;SDS011;78;48.788;9.010;2023-11-22T01:01:25;27.80;;;8.80;;
179;SDS011;78;48.788;9.010;2023-11-22T01:03:52;24.07;;;7.83;;
179;SDS011;78;48.788;9.010;2023-11-22T01:06:18;28.53;;;9.50;;
179;SDS011;78;48.788;9.010;2023-11-22T01:08:44;25.50;;;9.03;;
179;SDS011;78;48.788;9.010;2023-11-22T01:11:12;24.90;;;8.07;;
179;SDS011;78;48.788;9.010;2023-11-22T01:13:38;24.60;;;8.60;;
179;SDS011;78;48.788;9.010;2023-11-22T01:16:11;23.30;;;7.73;;
179;SDS011;78;48.788;9.010;2023-11-22T01:18:37;24.50;;;7.90;;
179;SDS011;78;48.788;9.010;2023-11-22T01:21:04;25.33;;;8.93;;
179;SDS011;78;48.788;9.010;2023-11-22T01:23:30;22.13;;;7.53;;
179;SDS011;78;48.788;9.010;2023-11-22T01:25:57;22.20;;;7.37;;
179;SDS011;78;48.788;9.010;2023-11-22T01:28:24;21.70;;;7.00;;
179;SDS011;78;48.788;9.010;2023-11-22T01:30:52;25.03;;;7.67;;
179;SDS011;78;48.788;9.010;2023-11-22T01:33:18;22.63;;;7.57;;
179;SDS011;78;48.788;9.010;2023-11-22T01:35:45;22.90;;;7.73;;
179;SDS011;78;48.788;9.010;2023-11-22T01:38:12;23.87;;;7.67;;
179;SDS011;78;48.788;9.010;2023-11-22T01:40:45;23.30;;;7.40;;
179;SDS011;78;48.788;9.010;2023-11-22T01:43:16;25.07;;;7.70;;
179;SDS011;78;48.788;9.010;2023-11-22T01:45:42;21.30;;;7.00;;
179;SDS011;78;48.788;9.010;2023-11-22T01:48:10;20.20;;;6.73;;
179;SDS011;78;48.788;9.010;2023-11-22T01:50:36;22.27;;;6.67;;
179;SDS011;78;48.788;9.010;2023-11-22T01:53:03;28.50;;;7.67;;
179;SDS011;78;48.788;9.010;2023-11-22T01:55:29;23.90;;;7.47;;
179;SDS011;78;48.788;9.010;2023-11-22T01:57:56;24.70;;;8.13;;
179;SDS011;78;48.788;9.010;2023-11-22T02:00:22;23.30;;;8.00;;
179;SDS011;78;48.788;9.010;2023-11-22T02:02:50;23.00;;;7.70;;
179;SDS011;78;48.788;9.010;2023-11-22T02:05:16;23.77;;;7.20;;
179;SDS011;78;48.788;9.010;2023-11-22T02:07:43;22.20;;;7.30;;
179;SDS011;78;48.788;9.010;2023-11-22T02:10:09;22.73;;;6.80;;
179;SDS011;78;48.788;9.010;2023-11-22T02:12:36;22.87;;;7.23;;
179;SDS011;78;48.788;9.010;2023-11-22T02:15:03;24.20;;;7.83;;
179;SDS011;78;48.788;9.010;2023-11-22T02:17:29;21.30;;;6.70;;
179;SDS011;78;48.788;9.010;2023-11-22T02:19:56;24.20;;;8.07;;
179;SDS011;78;48.788;9.010;2023-11-22T02:22:22;22.43;;;7.47;;
179;SDS011;78;48.788;9.010;2023-11-22T02:24:48;22.90;;;7.50;;
179;SDS011;78;48.788;9.010;2023-11-22T02:27:14;20.67;;;6.50;;
179;SDS011;78;48.788;9.010;2023-11-22T02:29:41;22.93;;;7.40;;
179;SDS011;78;48.788;9.010;2023-11-22T02:32:08;21.87;;;7.07;;
179;SDS011;78;48.788;9.010;2023-11-22T02:34:34;22.30;;;7.90;;
179;SDS011;78;48.788;9.010;2023-11-22T02:37:00;25.47;;;7.20;;
179;SDS011;78;48.788;9.010;2023-11-22T02:39:29;21.70;;;7.37;;
179;SDS011;78;48.788;9.010;2023-11-22T02:41:57;23.13;;;7.27;;
179;SDS011;78;48.788;9.010;2023-11-22T02:44:24;22.57;;;6.40;;
179;SDS011;78;48.788;9.010;2023-11-22T02:46:49;23.60;;;7.07;;
179;SDS011;78;48.788;9.010;2023-11-22T02:49:16;23.30;;;7.50;;
179;SDS011;78;48.788;9.010;2023-11-22T02:51:42;25.90;;;7.80;;
179;SDS011;78;48.788;9.010;2023-11-22T02:54:08;24.70;;;7.60;;
179;SDS011;78;48.788;9.010;2023-11-22T02:56:35;25.23;;;8.00;;
179;SDS011;78;48.788;9.010;2023-11-22T02:59:01;24.73;;;8.07;;
179;SDS011;78;48.788;9.010;2023-11-22T03:01:28;23.03;;;7.43;;
179;SDS011;78;48.788;9.010;2023-11-22T03:03:54;25.50;;;8.33;;
179;SDS011;78;48.788;9.010;2023-11-22T03:06:20;25.33;;;8.30;;
179;SDS011;78;48.788;9.010;2023-11-22T03:08:46;28.50;;;7.70;;
179;SDS011;78;48.788;9.010;2023-11-22T03:11:14;25.30;;;8.57;;
179;SDS011;78;48.788;9.010;2023-11-22T03:13:40;22.93;;;7.40;;
179;SDS011;78;48.788;9.010;2023-11-22T03:16:07;23.30;;;7.20;;
179;SDS011;78;48.788;9.010;2023-11-22T03:18:33;24.63;;;8.57;;
179;SDS011;78;48.788;9.010;2023-11-22T03:21:01;25.50;;;9.00;;
179;SDS011;78;48.788;9.010;2023-11-22T03:23:28;21.70;;;7.33;;
179;SDS011;78;48.788;9.010;2023-11-22T03:25:54;25.63;;;8.40;;
179;SDS011;78;48.788;9.010;2023-11-22T03:28:20;24.77;;;7.87;;
179;SDS011;78;48.788;9.010;2023-11-22T03:30:47;28.83;;;8.67;;
179;SDS011;78;48.788;9.010;2023-11-22T03:33:14;28.70;;;8.47;;
179;SDS011;78;48.788;9.010;2023-11-22T03:35:40;24.40;;;8.60;;
179;SDS011;78;48.788;9.010;2023-11-22T03:38:07;25.40;;;8.37;;
179;SDS011;78;48.788;9.010;2023-11-22T03:40:33;24.67;;;8.30;;
179;SDS011;78;48.788;9.010;2023-11-22T03:43:00;23.53;;;7.97;;
179;SDS011;78;48.788;9.010;2023-11-22T03:45:26;26.17;;;9.00;;
179;SDS011;78;48.788;9.010;2023-11-22T03:47:52;25.10;;;8.33;;
179;SDS011;78;48.788;9.010;2023-11-22T03:50:18;24.23;;;8.03;;
179;SDS011;78;48.788;9.010;2023-11-22T03:52:45;23.80;;;8.10;;
179;SDS011;78;48.788;9.010;2023-11-22T03:55:12;25.00;;;8.40;;
179;SDS011;78;48.788;9.010;2023-11-22T03:57:38;27.70;;;9.07;;
179;SDS011;78;48.788;9.010;2023-11-22T04:00:04;23.67;;;8.27;;
179;SDS011;78;48.788;9.010;2023-11-22T04:02:31;25.40;;;8.80;;
179;SDS011;78;48.788;9.010;2023-11-22T04:04:58;25.40;;;8.60;;
179;SDS011;78;48.788;9.010;2023-11-22T04:07:24;26.93;;;9.33;;
179;SDS011;78;48.788;9.010;2023-11-22T04:09:50;26.80;;;8.50;;
179;SDS011;78;48.788;9.010;2023-11-22T04:12:17;25.90;;;8.93;;
179;SDS011;78;48.788;9.010;2023-11-22T04:14:43;29.00;;;9.10;;
179;SDS011;78;48.788;9.010;2023-11-22T04:17:10;26.67;;;8.70;;
179;SDS011;78;48.788;9.010;2023-11-22T04:19:37;29.27;;;8.83;;
179;SDS011;78;48.788;9.010;2023-11-22T04:22:03;26.43;;;8.20;;
179;SDS011;78;48.788;9.010;2023-11-22T04:24:29;27.53;;;8.50;;
179;SDS011;78;48.788;9.010;2023-11-22T04:26:57;24.07;;;7.90;;
179;SDS011;78;48.788;9.010;2023-11-22T04:29:23;21.83;;;7.00;;
179;SDS011;78;48.788;9.010;2023-11-22T04:31:50;24.00;;;8.20;;
179;SDS011;78;48.788;9.010;2023-11-22T04:34:17;24.33;;;8.00;;
179;SDS011;78;48.788;9.010;2023-11-22T04:36:43;25.50;;;8.17;;
179;SDS011;78;48.788;9.010;2023-11-22T04:39:12;25.57;;;8.10;;
179;SDS011;78;48.788;9.010;2023-11-22T04:41:38;22.27;;;7.53;;
179;SDS011;78;48.788;9.010;2023-11-22T04:44:04;25.83;;;8.73;;
179;SDS011;78;48.788;9.010;2023-11-22T04:46:31;28.23;;;7.73;;
179;SDS011;78;48.788;9.010;2023-11-22T04:48:58;22.00;;;6.70;;
179;SDS011;78;48.788;9.010;2023-11-22T04:51:24;23.20;;;7.60;;
179;SDS011;78;48.788;9.010;2023-11-22T04:53:50;26.33;;;7.93;;
179;SDS011;78;48.788;9.010;2023-11-22T04:56:16;23.03;;;7.30;;
179;SDS011;78;48.788;9.010;2023-11-22T04:58:43;24.93;;;7.63;;
179;SDS011;78;48.788;9.010;2023-11-22T05:01:08;22.40;;;7.57;;
179;SDS011;78;48.788;9.010;2023-11-22T05:03:35;29.20;;;8.17;;
179;SDS011;78;48.788;9.010;2023-11-22T05:06:02;23.67;;;7.73;;
179;SDS011;78;48.788;9.010;2023-11-22T05:08:28;23.87;;;7.50;;
179;SDS011;78;48.788;9.010;2023-11-22T05:10:55;22.37;;;7.17;;
179;SDS011;78;48.788;9.010;2023-11-22T05:13:22;24.57;;;7.40;;
179;SDS011;78;48.788;9.010;2023-11-22T05:15:48;26.47;;;6.90;;
179;SDS011;78;48.788;9.010;2023-11-22T05:18:15;22.23;;;7.00;;
179;SDS011;78;48.788;9.010;2023-11-22T05:20:41;23.70;;;7.33;;
179;SDS011;78;48.788;9.010;2023-11-22T05:23:07;29.07;;;9.27;;
179;SDS011;78;48.788;9.010;2023-11-22T05:25:34;22.33;;;7.57;;
179;SDS011;78;48.788;9.010;2023-11-22T05:28:01;24.13;;;7.00;;
179;SDS011;78;48.788;9.010;2023-11-22T05:30:27;22.43;;;7.40;;
179;SDS011;78;48.788;9.010;2023-11-22T05:32:53;21.53;;;7.13;;
179;SDS011;78;48.788;9.010;2023-11-22T05:35:19;24.83;;;7.70;;
179;SDS011;78;48.788;9.010;2023-11-22T05:37:45;22.03;;;7.20;;
179;SDS011;78;48.788;9.010;2023-11-22T05:40:12;20.00;;;6.50;;
179;SDS011;78;48.788;9.010;2023-11-22T05:42:40;24.80;;;7.50;;
179;SDS011;78;48.788;9.010;2023-11-22T05:45:07;21.30;;;6.83;;
179;SDS011;78;48.788;9.010;2023-11-22T05:47:33;22.10;;;6.93;;
179;SDS011;78;48.788;9.010;2023-11-22T05:50:00;22.40;;;7.07;;
179;SDS011;78;48.788;9.010;2023-11-22T05:52:26;24.17;;;6.87;;
179;SDS011;78;48.788;9.010;2023-11-22T05:54:53;20.93;;;6.27;;
179;SDS011;78;48.788;9.010;2023-11-22T05:57:20;22.33;;;6.73;;
179;SDS011;78;48.788;9.010;2023-11-22T05:59:46;23.03;;;7.27;;
179;SDS011;78;48.788;9.010;2023-11-22T06:02:12;28.90;;;8.60;;
179;SDS011;78;48.788;9.010;2023-11-22T06:04:38;23.17;;;6.70;;
179;SDS011;78;48.788;9.010;2023-11-22T06:07:04;23.33;;;6.80;;
179;SDS011;78;48.788;9.010;2023-11-22T06:09:31;21.93;;;6.80;;
179;SDS011;78;48.788;9.010;2023-11-22T06:11:57;21.63;;;6.97;;
179;SDS011;78;48.788;9.010;2023-11-22T06:14:23;23.77;;;7.47;;
179;SDS011;78;48.788;9.010;2023-11-22T06:16:49;20.43;;;6.80;;
179;SDS011;78;48.788;9.010;2023-11-22T06:19:15;22.87;;;7.60;;
179;SDS011;78;48.788;9.010;2023-11-22T06:21:41;22.70;;;7.30;;
179;SDS011;78;48.788;9.010;2023-11-22T06:24:07;24.07;;;7.30;;
179;SDS011;78;48.788;9.010;2023-11-22T06:26:36;23.60;;;7.63;;
179;SDS011;78;48.788;9.010;2023-11-22T06:29:05;24.80;;;7.27;;
179;SDS011;78;48.788;9.010;2023-11-22T06:31:31;23.60;;;8.00;;
179;SDS011;78;48.788;9.010;2023-11-22T06:33:58;21.33;;;6.87;;
179;SDS011;78;48.788;9.010;2023-11-22T06:36:27;23.07;;;7.23;;
179;SDS011;78;48.788;9.010;2023-11-22T06:38:54;22.17;;;7.10;;
179;SDS011;78;48.788;9.010;2023-11-22T06:41:21;24.83;;;7.07;;
179;SDS011;78;48.788;9.010;2023-11-22T06:43:47;21.90;;;7.03;;
179;SDS011;78;48.788;9.010;2023-11-22T06:46:13;22.37;;;7.60;;
179;SDS011;78;48.788;9.010;2023-11-22T06:48:42;21.23;;;6.67;;
179;SDS011;78;48.788;9.010;2023-11-22T06:51:09;23.63;;;6.80;;
179;SDS011;78;48.788;9.010;2023-11-22T06:53:35;22.03;;;6.67;;
179;SDS011;78;48.788;9.010;2023-11-22T06:56:02;22.93;;;6.97;;
179;SDS011;78;48.788;9.010;2023-11-22T06:58:29;23.40;;;7.43;;
179;SDS011;78;48.788;9.010;2023-11-22T07:00:55;21.03;;;7.20;;
179;SDS011;78;48.788;9.010;2023-11-22T07:03:22;25.57;;;7.50;;
179;SDS011;78;48.788;9.010;2023-11-22T07:05:48;21.60;;;6.93;;
179;SDS011;78;48.788;9.010;2023-11-22T07:08:15;21.90;;;7.37;;
179;SDS011;78;48.788;9.010;2023-11-22T07:10:42;22.20;;;7.07;;
179;SDS011;78;48.788;9.010;2023-11-22T07:13:09;24.50;;;7.10;;
179;SDS011;78;48.788;9.010;2023-11-22T07:15:35;23.97;;;6.80;;
179;SDS011;78;48.788;9.010;2023-11-22T07:18:01;21.60;;;6.60;;
179;SDS011;78;48.788;9.010;2023-11-22T07:20:28;22.13;;;6.20;;
179;SDS011;78;48.788;9.010;2023-11-22T07:22:54;19.60;;;5.73;;
179;SDS011;78;48.788;9.010;2023-11-22T07:25:23;26.43;;;5.97;;
179;SDS011;78;48.788;9.010;2023-11-22T07:27:52;19.90;;;5.77;;
179;SDS011;78;48.788;9.010;2023-11-22T07:30:20;23.70;;;7.10;;
179;SDS011;78;48.788;9.010;2023-11-22T07:32:54;21.53;;;5.83;;
179;SDS011;78;48.788;9.010;2023-11-22T07:35:20;24.07;;;6.20;;
179;SDS011;78;48.788;9.010;2023-11-22T07:37:47;20.67;;;5.70;;
179;SDS011;78;48.788;9.010;2023-11-22T07:40:13;19.20;;;5.13;;
179;SDS011;78;48.788;9.010;2023-11-22T07:42:40;19.20;;;5.67;;
179;SDS011;78;48.788;9.010;2023-11-22T07:45:06;20.07;;;5.60;;
179;SDS011;78;48.788;9.010;2023-11-22T07:47:35;19.73;;;5.70;;
179;SDS011;78;48.788;9.010;2023-11-22T07:50:01;19.97;;;5.70;;
179;SDS011;78;48.788;9.010;2023-11-22T07:52:28;18.87;;;5.30;;
179;SDS011;78;48.788;9.010;2023-11-22T07:54:57;20.30;;;5.73;;
179;SDS011;78;48.788;9.010;2023-11-22T07:57:24;18.70;;;5.10;;
179;SDS011;78;48.788;9.010;2023-11-22T07:59:50;20.10;;;6.30;;
179;SDS011;78;48.788;9.010;2023-11-22T08:02:19;22.03;;;5.70;;
179;SDS011;78;48.788;9.010;2023-11-22T08:04:45;21.03;;;5.53;;
179;SDS011;78;48.788;9.010;2023-11-22T08:07:13;20.10;;;5.53;;
179;SDS011;78;48.788;9.010;2023-11-22T08:09:39;20.30;;;5.33;;
179;SDS011;78;48.788;9.010;2023-11-22T08:12:06;20.60;;;5.47;;
179;SDS011;78;48.788;9.010;2023-11-22T08:14:32;21.53;;;5.50;;
179;SDS011;78;48.788;9.010;2023-11-22T08:16:59;21.40;;;5.83;;
179;SDS011;78;48.788;9.010;2023-11-22T08:19:25;24.07;;;5.80;;
179;SDS011;78;48.788;9.010;2023-11-22T08:21:52;21.40;;;5.97;;
179;SDS011;78;48.788;9.010;2023-11-22T08:24:19;19.57;;;5.60;;
179;SDS011;78;48.788;9.010;2023-11-22T08:26:45;20.40;;;5.87;;
179;SDS011;78;48.788;9.010;2023-11-22T08:29:11;22.10;;;6.17;;
179;SDS011;78;48.788;9.010;2023-11-22T08:31:39;21.13;;;5.97;;
179;SDS011;78;48.788;9.010;2023-11-22T08:34:05;21.00;;;6.03;;
179;SDS011;78;48.788;9.010;2023-11-22T08:36:35;26.30;;;7.03;;
179;SDS011;78;48.788;9.010;2023-11-22T08:39:02;23.47;;;6.37;;
179;SDS011;78;48.788;9.010;2023-11-22T08:41:29;20.27;;;5.93;;
179;SDS011;78;48.788;9.010;2023-11-22T08:43:56;19.50;;;5.47;;
179;SDS011;78;48.788;9.010;2023-11-22T08:46:22;23.60;;;6.47;;
179;SDS011;78;48.788;9.010;2023-11-22T08:48:51;28.00;;;6.50;;
179;SDS011;78;48.788;9.010;2023-11-22T08:51:18;26.07;;;6.53;;
179;SDS011;78;48.788;9.010;2023-11-22T08:53:44;20.73;;;5.70;;
179;SDS011;78;48.788;9.010;2023-11-22T08:56:10;21.60;;;5.63;;
179;SDS011;78;48.788;9.010;2023-11-22T08:58:37;22.13;;;6.10;;
179;SDS011;78;48.788;9.010;2023-11-22T09:01:03;33.70;;;6.47;;
179;SDS011;78;48.788;9.010;2023-11-22T09:03:30;21.50;;;5.90;;
179;SDS011;78;48.788;9.010;2023-11-22T09:05:56;20.83;;;6.00;;
179;SDS011;78;48.788;9.010;2023-11-22T09:08:22;30.37;;;6.87;;
179;SDS011;78;48.788;9.010;2023-11-22T09:10:48;24.10;;;7.37;;
179;SDS011;78;48.788;9.010;2023-11-22T09:13:15;22.43;;;6.27;;
179;SDS011;78;48.788;9.010;2023-11-22T09:15:44;22.70;;;6.63;;
179;SDS011;78;48.788;9.010;2023-11-22T09:18:10;23.30;;;6.67;;
179;SDS011;78;48.788;9.010;2023-11-22T09:20:41;22.07;;;6.60;;
179;SDS011;78;48.788;9.010;2023-11-22T09:23:10;23.73;;;7.10;;
179;SDS011;78;48.788;9.010;2023-11-22T09:25:37;27.23;;;6.47;;
179;SDS011;78;48.788;9.010;2023-11-22T09:28:04;28.90;;;8.83;;
179;SDS011;78;48.788;9.010;2023-11-22T09:30:32;23.60;;;6.90;;
179;SDS011;78;48.788;9.010;2023-11-22T09:33:00;24.83;;;6.73;;
179;SDS011;78;48.788;9.010;2023-11-22T09:35:26;20.37;;;6.10;;
179;SDS011;78;48.788;9.010;2023-11-22T09:37:54;34.20;;;6.80;;
179;SDS011;78;48.788;9.010;2023-11-22T09:40:21;22.20;;;6.80;;
179;SDS011;78;48.788;9.010;2023-11-22T09:42:48;22.30;;;6.87;;
179;SDS011;78;48.788;9.010;2023-11-22T09:45:16;24.30;;;7.60;;
179;SDS011;78;48.788;9.010;2023-11-22T09:47:43;22.27;;;6.67;;
179;SDS011;78;48.788;9.010;2023-11-22T09:50:10;21.37;;;6.67;;
179;SDS011;78;48.788;9.010;2023-11-22T09:52:38;22.97;;;7.30;;
179;SDS011;78;48.788;9.010;2023-11-22T09:55:07;25.50;;;7.47;;
179;SDS011;78;48.788;9.010;2023-11-22T09:57:33;23.27;;;7.13;;
179;SDS011;78;48.788;9.010;2023-11-22T10:00:00;25.93;;;7.40;;
179;SDS011;78;48.788;9.010;2023-11-22T10:02:27;23.90;;;7.47;;
179;SDS011;78;48.788;9.010;2023-11-22T10:04:54;24.90;;;7.93;;
179;SDS011;78;48.788;9.010;2023-11-22T10:07:21;24.10;;;7.60;;
179;SDS011;78;48.788;9.010;2023-11-22T10:09:47;24.13;;;7.20;;
179;SDS011;78;48.788;9.010;2023-11-22T10:12:13;27.17;;;7.33;;
179;SDS011;78;48.788;9.010;2023-11-22T10:14:45;22.63;;;7.33;;
179;SDS011;78;48.788;9.010;2023-11-22T10:17:11;23.23;;;7.63;;
179;SDS011;78;48.788;9.010;2023-11-22T10:19:40;23.20;;;6.63;;
179;SDS011;78;48.788;9.010;2023-11-22T10:22:07;26.80;;;7.20;;
179;SDS011;78;48.788;9.010;2023-11-22T10:24:33;23.13;;;7.00;;
179;SDS011;78;48.788;9.010;2023-11-22T10:27:00;26.73;;;8.63;;
179;SDS011;78;48.788;9.010;2023-11-22T10:29:26;23.40;;;7.03;;
179;SDS011;78;48.788;9.010;2023-11-22T10:31:53;27.60;;;8.83;;
179;SDS011;78;48.788;9.010;2023-11-22T10:34:21;26.07;;;8.90;;
179;SDS011;78;48.788;9.010;2023-11-22T10:36:47;26.67;;;8.37;;
179;SDS011;78;48.788;9.010;2023-11-22T10:39:18;24.47;;;7.50;;
179;SDS011;78;48.788;9.010;2023-11-22T10:41:44;22.20;;;7.20;;
179;SDS011;78;48.788;9.010;2023-11-22T10:44:11;21.70;;;6.80;;
179;SDS011;78;48.788;9.010;2023-11-22T10:46:38;26.70;;;8.30;;
179;SDS011;78;48.788;9.010;2023-11-22T10:49:07;28.17;;;9.80;;
179;SDS011;78;48.788;9.010;2023-11-22T10:51:33;27.47;;;8.17;;
179;SDS011;78;48.788;9.010;2023-11-22T10:54:00;25.87;;;8.90;;
179;SDS011;78;48.788;9.010;2023-11-22T10:56:28;24.43;;;7.83;;
179;SDS011;78;48.788;9.010;2023-11-22T10:58:56;25.83;;;7.50;;
179;SDS011;78;48.788;9.010;2023-11-22T11:01:26;23.47;;;6.97;;
179;SDS011;78;48.788;9.010;2023-11-22T11:04:08;26.27;;;8.20;;
179;SDS011;78;48.788;9.010;2023-11-22T11:06:35;31.67;;;8.80;;
179;SDS011;78;48.788;9.010;2023-11-22T11:09:02;24.03;;;7.80;;
179;SDS011;78;48.788;9.010;2023-11-22T11:11:35;22.67;;;6.87;;
179;SDS011;78;48.788;9.010;2023-11-22T11:14:02;25.00;;;7.77;;
179;SDS011;78;48.788;9.010;2023-11-22T11:16:28;26.63;;;8.03;;
179;SDS011;78;48.788;9.010;2023-11-22T11:18:56;25.27;;;8.37;;
179;SDS011;78;48.788;9.010;2023-11-22T11:21:22;32.93;;;8.67;;
179;SDS011;78;48.788;9.010;2023-11-22T11:23:49;24.20;;;8.40;;
179;SDS011;78;48.788;9.010;2023-11-22T11:26:20;26.87;;;8.40;;
179;SDS011;78;48.788;9.010;2023-11-22T11:28:49;23.03;;;7.30;;
179;SDS011;78;48.788;9.010;2023-11-22T11:31:16;25.20;;;8.40;;
179;SDS011;78;48.788;9.010;2023-11-22T11:38:50;23.90;;;8.20;;
179;SDS011;78;48.788;9.010;2023-11-22T11:41:16;27.33;;;8.50;;
179;SDS011;78;48.788;9.010;2023-11-22T11:43:43;26.73;;;8.30;;
179;SDS011;78;48.788;9.010;2023-11-22T11:46:10;24.20;;;7.83;;
179;SDS011;78;48.788;9.010;2023-11-22T11:48:37;23.53;;;7.77;;
179;SDS011;78;48.788;9.010;2023-11-22T11:51:03;25.63;;;8.93;;
179;SDS011;78;48.788;9.010;2023-11-22T11:53:31;28.97;;;10.20;;
179;SDS011;78;48.788;9.010;2023-11-22T11:55:58;28.47;;;10.33;;
179;SDS011;78;48.788;9.010;2023-11-22T11:58:24;25.43;;;9.03;;
179;SDS011;78;48.788;9.010;2023-11-22T12:00:54;29.80;;;10.10;;
179;SDS011;78;48.788;9.010;2023-11-22T12:03:20;37.97;;;13.10;;
179;SDS011;78;48.788;9.010;2023-11-22T12:05:47;28.00;;;9.40;;
179;SDS011;78;48.788;9.010;2023-11-22T12:08:16;27.30;;;8.57;;
179;SDS011;78;48.788;9.010;2023-11-22T12:10:45;30.17;;;11.10;;
179;SDS011;78;48.788;9.010;2023-11-22T12:13:18;31.67;;;11.03;;
179;SDS011;78;48.788;9.010;2023-11-22T12:15:44;30.60;;;9.63;;
179;SDS011;78;48.788;9.010;2023-11-22T12:18:10;36.10;;;14.40;;
179;SDS011;78;48.788;9.010;2023-11-22T12:20:36;26.57;;;9.13;;
179;SDS011;78;48.788;9.010;2023-11-22T12:23:02;36.20;;;10.13;;
179;SDS011;78;48.788;9.010;2023-11-22T12:25:31;27.90;;;9.30;;
179;SDS011;78;48.788;9.010;2023-11-22T12:27:57;28.20;;;8.80;;
179;SDS011;78;48.788;9.010;2023-11-22T12:30:30;25.83;;;9.03;;
179;SDS011;78;48.788;9.010;2023-11-22T12:32:59;31.40;;;10.40;;
179;SDS011;78;48.788;9.010;2023-11-22T12:35:26;24.50;;;8.37;;
179;SDS011;78;48.788;9.010;2023-11-22T12:37:52;30.50;;;11.00;;
179;SDS011;78;48.788;9.010;2023-11-22T12:40:19;28.97;;;9.10;;
179;SDS011;78;48.788;9.010;2023-11-22T12:42:52;31.23;;;10.03;;
179;SDS011;78;48.788;9.010;2023-11-22T12:45:22;26.50;;;9.00;;
179;SDS011;78;48.788;9.010;2023-11-22T12:47:49;26.70;;;8.77;;
179;SDS011;78;48.788;9.010;2023-11-22T12:50:31;30.37;;;10.20;;
179;SDS011;78;48.788;9.010;2023-11-22T12:53:18;27.10;;;9.73;;
179;SDS011;78;48.788;9.010;2023-11-22T12:55:47;26.93;;;9.33;;
179;SDS011;78;48.788;9.010;2023-11-22T12:58:14;25.80;;;9.10;;
179;SDS011;78;48.788;9.010;2023-11-22T13:00:40;25.87;;;9.00;;
179;SDS011;78;48.788;9.010;2023-11-22T13:03:09;25.27;;;8.27;;
179;SDS011;78;48.788;9.010;2023-11-22T13:05:42;32.70;;;9.10;;
179;SDS011;78;48.788;9.010;2023-11-22T13:08:08;25.37;;;8.50;;
179;SDS011;78;48.788;9.010;2023-11-22T13:10:38;24.93;;;8.27;;
179;SDS011;78;48.788;9.010;2023-11-22T13:13:04;27.00;;;9.17;;
179;SDS011;78;48.788;9.010;2023-11-22T13:15:33;25.20;;;8.53;;
179;SDS011;78;48.788;9.010;2023-11-22T13:18:00;27.57;;;9.10;;
179;SDS011;78;48.788;9.010;2023-11-22T13:20:26;23.70;;;7.70;;
179;SDS011;78;48.788;9.010;2023-11-22T13:22:53;26.47;;;8.80;;
179;SDS011;78;48.788;9.010;2023-11-22T13:25:19;28.87;;;10.60;;
179;SDS011;78;48.788;9.010;2023-11-22T13:27:48;25.67;;;9.30;;
179;SDS011;78;48.788;9.010;2023-11-22T13:30:15;27.30;;;9.90;;
179;SDS011;78;48.788;9.010;2023-11-22T13:32:43;35.37;;;10.83;;
179;SDS011;78;48.788;9.010;2023-11-22T13:35:09;26.97;;;9.00;;
179;SDS011;78;48.788;9.010;2023-11-22T13:37:40;27.20;;;8.70;;
179;SDS011;78;48.788;9.010;2023-11-22T13:40:08;27.93;;;9.20;;
179;SDS011;78;48.788;9.010;2023-11-22T13:42:39;27.60;;;8.93;;
179;SDS011;78;48.788;9.010;2023-11-22T13:45:05;27.23;;;8.73;;
179;SDS011;78;48.788;9.010;2023-11-22T13:47:32;28.63;;;10.03;;
179;SDS011;78;48.788;9.010;2023-11-22T13:49:58;29.37;;;9.43;;
179;SDS011;78;48.788;9.010;2023-11-22T13:52:24;28.07;;;9.37;;
179;SDS011;78;48.788;9.010;2023-11-22T13:54:50;27.13;;;9.17;;
179;SDS011;78;48.788;9.010;2023-11-22T13:57:21;26.90;;;9.53;;
179;SDS011;78;48.788;9.010;2023-11-22T13:59:47;27.30;;;9.60;;
179;SDS011;78;48.788;9.010;2023-11-22T14:02:13;27.13;;;9.40;;
179;SDS011;78;48.788;9.010;2023-11-22T14:04:39;25.57;;;8.73;;
179;SDS011;78;48.788;9.010;2023-11-22T14:07:05;26.40;;;9.00;;
179;SDS011;78;48.788;9.010;2023-11-22T14:09:31;29.23;;;9.70;;
179;SDS011;78;48.788;9.010;2023-11-22T14:12:01;28.27;;;9.27;;
179;SDS011;78;48.788;9.010;2023-11-22T14:14:27;27.10;;;8.90;;
179;SDS011;78;48.788;9.010;2023-11-22T14:16:53;28.97;;;9.27;;
179;SDS011;78;48.788;9.010;2023-11-22T14:19:19;30.67;;;10.00;;
179;SDS011;78;48.788;9.010;2023-11-22T14:21:45;27.40;;;9.00;;
179;SDS011;78;48.788;9.010;2023-11-22T14:24:12;29.30;;;9.77;;
179;SDS011;78;48.788;9.010;2023-11-22T14:26:38;30.37;;;9.47;;
179;SDS011;78;48.788;9.010;2023-11-22T14:29:03;26.90;;;9.40;;
179;SDS011;78;48.788;9.010;2023-11-22T14:31:31;27.60;;;9.00;;
179;SDS011;78;48.788;9.010;2023-11-22T14:33:57;33.40;;;10.17;;
179;SDS011;78;48.788;9.010;2023-11-22T14:36:23;27.27;;;8.20;;
179;SDS011;78;48.788;9.010;2023-11-22T14:38:51;27.73;;;9.13;;
179;SDS011;78;48.788;9.010;2023-11-22T14:41:21;28.00;;;9.35;;
179;SDS011;78;48.788;9.010;2023-11-22T14:43:47;28.47;;;9.47;;
179;SDS011;78;48.788;9.010;2023-11-22T14:46:13;28.20;;;10.00;;
179;SDS011;78;48.788;9.010;2023-11-22T14:48:39;30.30;;;10.13;;
179;SDS011;78;48.788;9.010;2023-11-22T14:51:05;29.00;;;10.23;;
179;SDS011;78;48.788;9.010;2023-11-22T14:53:34;33.00;;;10.60;;
179;SDS011;78;48.788;9.010;2023-11-22T14:56:00;30.57;;;9.83;;
179;SDS011;78;48.788;9.010;2023-11-22T14:58:28;27.50;;;9.07;;
179;SDS011;78;48.788;9.010;2023-11-22T15:00:54;29.40;;;9.87;;
179;SDS011;78;48.788;9.010;2023-11-22T15:03:22;27.63;;;9.80;;
179;SDS011;78;48.788;9.010;2023-11-22T15:05:49;27.20;;;9.07;;
179;SDS011;78;48.788;9.010;2023-11-22T15:08:15;32.73;;;9.83;;
179;SDS011;78;48.788;9.010;2023-11-22T15:10:41;27.47;;;8.90;;
179;SDS011;78;48.788;9.010;2023-11-22T15:13:07;27.63;;;9.40;;
179;SDS011;78;48.788;9.010;2023-11-22T15:15:34;27.43;;;9.40;;
179;SDS011;78;48.788;9.010;2023-11-22T15:18:01;28.27;;;9.50;;
179;SDS011;78;48.788;9.010;2023-11-22T15:20:27;34.73;;;8.87;;
179;SDS011;78;48.788;9.010;2023-11-22T15:22:53;28.77;;;10.43;;
179;SDS011;78;48.788;9.010;2023-11-22T15:25:19;29.13;;;9.90;;
179;SDS011;78;48.788;9.010;2023-11-22T15:27:45;29.03;;;9.63;;
179;SDS011;78;48.788;9.010;2023-11-22T15:30:11;26.80;;;9.20;;
179;SDS011;78;48.788;9.010;2023-11-22T15:32:37;33.33;;;11.33;;
179;SDS011;78;48.788;9.010;2023-11-22T15:35:03;31.23;;;11.13;;
179;SDS011;78;48.788;9.010;2023-11-22T15:37:30;29.93;;;11.27;;
179;SDS011;78;48.788;9.010;2023-11-22T15:39:56;31.63;;;10.40;;
179;SDS011;78;48.788;9.010;2023-11-22T15:42:22;29.37;;;10.30;;
179;SDS011;78;48.788;9.010;2023-11-22T15:44:48;28.33;;;9.50;;
179;SDS011;78;48.788;9.010;2023-11-22T15:47:16;26.83;;;9.13;;